CSN8159 ZGGG-VVTS
Flight info
| Callsign | CSN8159 |
|---|---|
| Flight time | 1h 2m |
| Altitude | 32000 |
| Route | SIERA DCT ROCCA DCT ALLEY V32 EPDOS L642 EPKAL/K0870F320 L642 SOSPA W15 VETOM VETOM5C |
| Aircraft | A321/M-SDE3FGHIRWY/LB1 |
Departure
| Time | 2026-05-04 02:10 |
|---|---|
| Airport | Guangzhou Baiyun International Airport (ZGGG) |
Arrival
| Time | 2026-05-04 03:13 |
|---|---|
| Airport | Tan Son Nhat International Airport (VVTS) |
| Time | Latitude | Longitude | Altitude | Speed | Heading |
|---|---|---|---|---|---|
| 2026-05-04 01:30 | 23.40034 | 113.29693 | 55 ft | 0 kts | 104° |
| 2026-05-04 01:54 | 23.40037 | 113.29677 | 53 ft | 4 kts | 110° |
| 2026-05-04 01:55 | 23.40050 | 113.29652 | 51 ft | 4 kts | 137° |
| 2026-05-04 01:55 | 23.40072 | 113.29639 | 51 ft | 4 kts | 180° |
| 2026-05-04 01:55 | 23.40093 | 113.29647 | 53 ft | 3 kts | 234° |
| 2026-05-04 01:55 | 23.40096 | 113.29650 | 53 ft | 0 kts | 239° |
| 2026-05-04 01:58 | 23.40090 | 113.29640 | 52 ft | 5 kts | 239° |
| 2026-05-04 01:59 | 23.40062 | 113.29573 | 57 ft | 12 kts | 268° |
| 2026-05-04 01:59 | 23.40079 | 113.29488 | 58 ft | 11 kts | 284° |
| 2026-05-04 01:59 | 23.40096 | 113.29413 | 58 ft | 10 kts | 279° |
| 2026-05-04 01:59 | 23.40040 | 113.29360 | 57 ft | 16 kts | 192° |
| 2026-05-04 02:00 | 23.39912 | 113.29325 | 53 ft | 22 kts | 194° |
| 2026-05-04 02:00 | 23.39762 | 113.29285 | 54 ft | 21 kts | 194° |
| 2026-05-04 02:00 | 23.39623 | 113.29247 | 52 ft | 20 kts | 194° |
| 2026-05-04 02:00 | 23.39493 | 113.29212 | 53 ft | 18 kts | 194° |
| 2026-05-04 02:01 | 23.39374 | 113.29180 | 54 ft | 17 kts | 194° |
| 2026-05-04 02:01 | 23.39266 | 113.29151 | 52 ft | 16 kts | 194° |
| 2026-05-04 02:01 | 23.39187 | 113.29080 | 58 ft | 16 kts | 272° |
| 2026-05-04 02:01 | 23.39189 | 113.28958 | 52 ft | 19 kts | 230° |
| 2026-05-04 02:02 | 23.39043 | 113.28909 | 53 ft | 23 kts | 194° |
| 2026-05-04 02:02 | 23.38890 | 113.28868 | 52 ft | 22 kts | 194° |
| 2026-05-04 02:02 | 23.38749 | 113.28830 | 56 ft | 20 kts | 194° |
| 2026-05-04 02:02 | 23.38618 | 113.28794 | 51 ft | 19 kts | 194° |
| 2026-05-04 02:03 | 23.38495 | 113.28761 | 54 ft | 18 kts | 194° |
| 2026-05-04 02:03 | 23.38382 | 113.28730 | 54 ft | 16 kts | 194° |
| 2026-05-04 02:03 | 23.38279 | 113.28703 | 55 ft | 14 kts | 193° |
| 2026-05-04 02:03 | 23.38186 | 113.28678 | 51 ft | 13 kts | 194° |
| 2026-05-04 02:04 | 23.38103 | 113.28655 | 53 ft | 12 kts | 194° |
| 2026-05-04 02:04 | 23.38012 | 113.28631 | 52 ft | 15 kts | 193° |
| 2026-05-04 02:04 | 23.37896 | 113.28600 | 51 ft | 19 kts | 194° |
| 2026-05-04 02:04 | 23.37764 | 113.28565 | 53 ft | 19 kts | 194° |
| 2026-05-04 02:05 | 23.37675 | 113.28518 | 56 ft | 12 kts | 253° |
| 2026-05-04 02:05 | 23.37682 | 113.28464 | 58 ft | 0 kts | 285° |
| 2026-05-04 02:05 | 23.37682 | 113.28463 | 58 ft | 1 kts | 285° |
| 2026-05-04 02:05 | 23.37694 | 113.28414 | 58 ft | 11 kts | 284° |
| 2026-05-04 02:06 | 23.37739 | 113.28364 | 52 ft | 9 kts | 1° |
| 2026-05-04 02:06 | 23.37772 | 113.28374 | 53 ft | 0 kts | 15° |
| 2026-05-04 02:09 | 23.37783 | 113.28377 | 58 ft | 7 kts | 15° |
| 2026-05-04 02:09 | 23.38029 | 113.28443 | 55 ft | 70 kts | 13° |
| 2026-05-04 02:09 | 23.38699 | 113.28624 | 56 ft | 125 kts | 14° |
| 2026-05-04 02:09 | 23.39690 | 113.28891 | 58 ft | 166 kts | 13° |
| 2026-05-04 02:10 | 23.40847 | 113.29199 | 474 ft | 172 kts | 14° |
| 2026-05-04 02:10 | 23.42009 | 113.29507 | 1011 ft | 172 kts | 14° |
| 2026-05-04 02:10 | 23.43193 | 113.29813 | 1430 ft | 181 kts | 14° |
| 2026-05-04 02:10 | 23.44519 | 113.29929 | 1561 ft | 204 kts | 354° |
| 2026-05-04 02:11 | 23.45941 | 113.29420 | 1743 ft | 226 kts | 341° |
| 2026-05-04 02:11 | 23.47421 | 113.28773 | 2245 ft | 231 kts | 342° |
| 2026-05-04 02:11 | 23.48925 | 113.28115 | 2832 ft | 234 kts | 342° |
| 2026-05-04 02:11 | 23.50454 | 113.27448 | 3324 ft | 239 kts | 342° |
| 2026-05-04 02:12 | 23.52010 | 113.26772 | 3800 ft | 243 kts | 341° |
| 2026-05-04 02:12 | 23.53607 | 113.26134 | 4279 ft | 246 kts | 344° |
| 2026-05-04 02:12 | 23.55287 | 113.25577 | 4573 ft | 261 kts | 345° |
| 2026-05-04 02:12 | 23.57062 | 113.25030 | 5142 ft | 268 kts | 344° |
| 2026-05-04 02:13 | 23.58814 | 113.24319 | 5781 ft | 270 kts | 327° |
| 2026-05-04 02:13 | 23.60244 | 113.22992 | 6372 ft | 272 kts | 309° |
| 2026-05-04 02:13 | 23.61505 | 113.21451 | 7040 ft | 273 kts | 309° |
| 2026-05-04 02:13 | 23.62760 | 113.19897 | 7717 ft | 273 kts | 308° |
| 2026-05-04 02:14 | 23.63947 | 113.18291 | 8379 ft | 271 kts | 296° |
| 2026-05-04 02:14 | 23.64485 | 113.16365 | 9021 ft | 266 kts | 271° |
| 2026-05-04 02:14 | 23.64173 | 113.14420 | 9643 ft | 267 kts | 247° |
| 2026-05-04 02:14 | 23.63055 | 113.12762 | 10247 ft | 273 kts | 227° |
| 2026-05-04 02:15 | 23.61656 | 113.11309 | 10413 ft | 290 kts | 227° |
| 2026-05-04 02:15 | 23.60035 | 113.09869 | 10542 ft | 312 kts | 217° |
| 2026-05-04 02:15 | 23.58046 | 113.08734 | 10656 ft | 334 kts | 206° |
| 2026-05-04 02:15 | 23.55732 | 113.08041 | 10777 ft | 357 kts | 193° |
| 2026-05-04 02:16 | 23.53188 | 113.07903 | 11031 ft | 373 kts | 184° |
| 2026-05-04 02:16 | 23.50582 | 113.07930 | 11489 ft | 376 kts | 184° |
| 2026-05-04 02:16 | 23.47949 | 113.07947 | 11995 ft | 379 kts | 185° |
| 2026-05-04 02:16 | 23.45309 | 113.07959 | 12502 ft | 381 kts | 185° |
| 2026-05-04 02:17 | 23.42647 | 113.07969 | 13009 ft | 383 kts | 185° |
| 2026-05-04 02:17 | 23.39972 | 113.07982 | 13502 ft | 386 kts | 185° |
| 2026-05-04 02:17 | 23.37279 | 113.07997 | 13990 ft | 388 kts | 185° |
| 2026-05-04 02:17 | 23.34567 | 113.08013 | 14416 ft | 391 kts | 185° |
| 2026-05-04 02:18 | 23.31839 | 113.08029 | 14838 ft | 393 kts | 185° |
| 2026-05-04 02:18 | 23.29099 | 113.08048 | 15248 ft | 395 kts | 184° |
| 2026-05-04 02:18 | 23.26334 | 113.08353 | 15647 ft | 404 kts | 174° |
| 2026-05-04 02:18 | 23.23608 | 113.09224 | 16027 ft | 414 kts | 163° |
| 2026-05-04 02:19 | 23.20936 | 113.10442 | 16373 ft | 418 kts | 162° |
| 2026-05-04 02:19 | 23.19159 | 113.11258 | 16597 ft | 420 kts | 162° |
| 2026-05-04 02:19 | 23.16453 | 113.12496 | 16946 ft | 423 kts | 163° |
| 2026-05-04 02:19 | 23.13734 | 113.13734 | 17305 ft | 426 kts | 163° |
| 2026-05-04 02:20 | 23.10993 | 113.14981 | 17654 ft | 429 kts | 163° |
| 2026-05-04 02:20 | 23.08231 | 113.16236 | 17997 ft | 432 kts | 163° |
| 2026-05-04 02:20 | 23.04544 | 113.17907 | 18440 ft | 436 kts | 163° |
| 2026-05-04 02:20 | 23.02653 | 113.18762 | 18643 ft | 437 kts | 163° |
| 2026-05-04 02:21 | 22.98891 | 113.20302 | 19066 ft | 436 kts | 167° |
| 2026-05-04 02:21 | 22.96005 | 113.21333 | 19393 ft | 436 kts | 169° |
| 2026-05-04 02:21 | 22.94080 | 113.21975 | 19604 ft | 437 kts | 169° |
| 2026-05-04 02:21 | 22.91169 | 113.22915 | 19916 ft | 438 kts | 169° |
| 2026-05-04 02:22 | 22.88246 | 113.23861 | 20217 ft | 440 kts | 169° |
| 2026-05-04 02:22 | 22.85313 | 113.24831 | 20543 ft | 441 kts | 168° |
| 2026-05-04 02:22 | 22.82378 | 113.25829 | 20871 ft | 443 kts | 168° |
| 2026-05-04 02:22 | 22.79440 | 113.26847 | 21203 ft | 444 kts | 168° |
| 2026-05-04 02:23 | 22.76496 | 113.27879 | 21525 ft | 445 kts | 168° |
| 2026-05-04 02:23 | 22.73544 | 113.28916 | 21837 ft | 446 kts | 168° |
| 2026-05-04 02:23 | 22.70581 | 113.29954 | 22149 ft | 447 kts | 168° |
| 2026-05-04 02:23 | 22.67614 | 113.30988 | 22448 ft | 449 kts | 168° |
| 2026-05-04 02:24 | 22.64636 | 113.32017 | 22733 ft | 450 kts | 168° |
| 2026-05-04 02:24 | 22.61647 | 113.33049 | 23022 ft | 451 kts | 168° |
| 2026-05-04 02:24 | 22.58657 | 113.34081 | 23293 ft | 452 kts | 168° |
| 2026-05-04 02:24 | 22.55660 | 113.35118 | 23603 ft | 452 kts | 168° |
| 2026-05-04 02:25 | 22.52657 | 113.36157 | 23846 ft | 454 kts | 168° |
| 2026-05-04 02:25 | 22.49650 | 113.37197 | 24059 ft | 455 kts | 168° |
| 2026-05-04 02:25 | 22.46623 | 113.38242 | 24262 ft | 457 kts | 168° |
| 2026-05-04 02:25 | 22.43590 | 113.39285 | 24471 ft | 459 kts | 168° |
| 2026-05-04 02:26 | 22.40534 | 113.40335 | 24685 ft | 460 kts | 168° |
| 2026-05-04 02:26 | 22.37477 | 113.41387 | 24899 ft | 462 kts | 168° |
| 2026-05-04 02:26 | 22.34414 | 113.42442 | 25081 ft | 464 kts | 168° |
| 2026-05-04 02:26 | 22.31331 | 113.43505 | 25279 ft | 465 kts | 168° |
| 2026-05-04 02:27 | 22.28246 | 113.44567 | 25494 ft | 466 kts | 168° |
| 2026-05-04 02:27 | 22.25146 | 113.45632 | 25660 ft | 468 kts | 168° |
| 2026-05-04 02:27 | 22.22036 | 113.46701 | 25843 ft | 470 kts | 168° |
| 2026-05-04 02:27 | 22.18916 | 113.47799 | 26041 ft | 472 kts | 167° |
| 2026-05-04 02:28 | 22.15796 | 113.48934 | 26237 ft | 475 kts | 167° |
| 2026-05-04 02:28 | 22.12706 | 113.50078 | 26425 ft | 476 kts | 166° |
| 2026-05-04 02:28 | 22.09569 | 113.51249 | 26629 ft | 478 kts | 166° |
| 2026-05-04 02:28 | 22.06420 | 113.52420 | 26812 ft | 479 kts | 167° |
| 2026-05-04 02:29 | 22.03257 | 113.53587 | 26995 ft | 481 kts | 167° |
| 2026-05-04 02:29 | 22.00091 | 113.54754 | 27230 ft | 481 kts | 166° |
| 2026-05-04 02:29 | 21.97020 | 113.56228 | 27473 ft | 488 kts | 157° |
| 2026-05-04 02:29 | 21.94057 | 113.58029 | 27693 ft | 489 kts | 156° |
| 2026-05-04 02:30 | 21.91098 | 113.59842 | 27921 ft | 489 kts | 156° |
| 2026-05-04 02:30 | 21.88145 | 113.61653 | 28164 ft | 489 kts | 156° |
| 2026-05-04 02:30 | 21.85191 | 113.63462 | 28409 ft | 488 kts | 156° |
| 2026-05-04 02:30 | 21.82237 | 113.65267 | 28647 ft | 488 kts | 156° |
| 2026-05-04 02:31 | 21.79284 | 113.67067 | 28896 ft | 488 kts | 156° |
| 2026-05-04 02:31 | 21.76326 | 113.68866 | 29131 ft | 488 kts | 156° |
| 2026-05-04 02:31 | 21.73376 | 113.70663 | 29375 ft | 487 kts | 156° |
| 2026-05-04 02:31 | 21.70425 | 113.72461 | 29610 ft | 487 kts | 156° |
| 2026-05-04 02:32 | 21.67476 | 113.74254 | 29846 ft | 487 kts | 156° |
| 2026-05-04 02:32 | 21.64527 | 113.76045 | 30061 ft | 487 kts | 156° |
| 2026-05-04 02:32 | 21.61531 | 113.77716 | 30212 ft | 482 kts | 162° |
| 2026-05-04 02:32 | 21.58389 | 113.78889 | 30400 ft | 475 kts | 172° |
| 2026-05-04 02:33 | 21.55170 | 113.79523 | 30580 ft | 467 kts | 180° |
| 2026-05-04 02:33 | 21.51942 | 113.79626 | 30764 ft | 461 kts | 187° |
| 2026-05-04 02:33 | 21.48780 | 113.79527 | 30950 ft | 461 kts | 187° |
| 2026-05-04 02:33 | 21.45527 | 113.79440 | 31140 ft | 461 kts | 187° |
| 2026-05-04 02:34 | 21.42363 | 113.79367 | 31332 ft | 461 kts | 187° |
| 2026-05-04 02:34 | 21.39154 | 113.79299 | 31534 ft | 461 kts | 187° |
| 2026-05-04 02:34 | 21.35945 | 113.79232 | 31735 ft | 461 kts | 187° |
| 2026-05-04 02:34 | 21.32740 | 113.79164 | 31948 ft | 461 kts | 187° |
| 2026-05-04 02:35 | 21.29543 | 113.79092 | 32158 ft | 459 kts | 187° |
| 2026-05-04 02:35 | 21.26347 | 113.79015 | 32390 ft | 459 kts | 187° |
| 2026-05-04 02:35 | 21.23158 | 113.78938 | 32601 ft | 458 kts | 187° |
| 2026-05-04 02:35 | 21.19970 | 113.78862 | 32802 ft | 458 kts | 187° |
| 2026-05-04 02:36 | 21.16780 | 113.78786 | 33001 ft | 459 kts | 187° |
| 2026-05-04 02:36 | 21.13590 | 113.78709 | 33204 ft | 458 kts | 187° |
| 2026-05-04 02:36 | 21.10402 | 113.78633 | 33409 ft | 458 kts | 187° |
| 2026-05-04 02:36 | 21.07216 | 113.78520 | 33611 ft | 457 kts | 189° |
| 2026-05-04 02:37 | 21.04055 | 113.78272 | 33813 ft | 455 kts | 191° |
| 2026-05-04 02:37 | 21.00911 | 113.77916 | 33989 ft | 454 kts | 192° |
| 2026-05-04 02:37 | 20.85921 | 113.76021 | 34048 ft | 454 kts | 192° |
| 2026-05-04 02:38 | 20.60807 | 113.73249 | 33996 ft | 453 kts | 191° |
| 2026-05-04 02:38 | 20.35725 | 113.70456 | 33983 ft | 453 kts | 191° |
| 2026-05-04 02:39 | 20.10630 | 113.67662 | 33969 ft | 453 kts | 191° |
| 2026-05-04 02:39 | 19.85764 | 113.64926 | 33959 ft | 452 kts | 191° |
| 2026-05-04 02:40 | 19.60737 | 113.62158 | 33945 ft | 452 kts | 190° |
| 2026-05-04 02:40 | 19.35783 | 113.59414 | 33924 ft | 449 kts | 190° |
| 2026-05-04 02:41 | 19.10924 | 113.56682 | 34067 ft | 452 kts | 189° |
| 2026-05-04 02:41 | 18.85934 | 113.53507 | 34044 ft | 453 kts | 191° |
| 2026-05-04 02:42 | 18.60844 | 113.49901 | 34056 ft | 455 kts | 191° |
| 2026-05-04 02:42 | 18.49688 | 113.44507 | 34054 ft | 445 kts | 219° |
| 2026-05-04 02:42 | 18.39648 | 113.36785 | 34053 ft | 448 kts | 218° |
| 2026-05-04 02:43 | 18.19681 | 113.21442 | 34036 ft | 446 kts | 218° |
| 2026-05-04 02:43 | 17.99633 | 113.06063 | 34030 ft | 446 kts | 218° |
| 2026-05-04 02:44 | 17.79666 | 112.90716 | 34023 ft | 444 kts | 219° |
| 2026-05-04 02:44 | 17.59902 | 112.75114 | 33997 ft | 447 kts | 219° |
| 2026-05-04 02:45 | 17.39912 | 112.59488 | 34006 ft | 448 kts | 219° |
| 2026-05-04 02:45 | 17.19948 | 112.43868 | 34012 ft | 448 kts | 219° |
| 2026-05-04 02:46 | 16.99906 | 112.28263 | 33996 ft | 450 kts | 219° |
| 2026-05-04 02:46 | 16.79631 | 112.12896 | 33991 ft | 450 kts | 218° |
| 2026-05-04 02:47 | 16.59269 | 111.97492 | 33988 ft | 451 kts | 218° |
| 2026-05-04 02:47 | 16.39028 | 111.82227 | 33974 ft | 452 kts | 218° |
| 2026-05-04 02:48 | 16.18603 | 111.66861 | 33967 ft | 453 kts | 217° |
| 2026-05-04 02:48 | 15.98175 | 111.51518 | 33966 ft | 452 kts | 217° |
| 2026-05-04 02:49 | 15.77722 | 111.36237 | 33961 ft | 453 kts | 217° |
| 2026-05-04 02:49 | 15.57278 | 111.20959 | 33953 ft | 453 kts | 217° |
| 2026-05-04 02:50 | 15.36813 | 111.05724 | 33954 ft | 453 kts | 217° |
| 2026-05-04 02:50 | 15.17488 | 110.88964 | 33943 ft | 453 kts | 221° |
| 2026-05-04 02:51 | 14.98314 | 110.72338 | 33932 ft | 451 kts | 222° |
| 2026-05-04 02:51 | 14.79046 | 110.55627 | 33935 ft | 452 kts | 222° |
| 2026-05-04 02:52 | 14.59790 | 110.38978 | 33932 ft | 451 kts | 222° |
| 2026-05-04 02:52 | 14.40564 | 110.22357 | 33937 ft | 451 kts | 222° |
| 2026-05-04 02:53 | 14.21317 | 110.05815 | 33931 ft | 449 kts | 222° |
| 2026-05-04 02:53 | 14.02122 | 109.89312 | 33928 ft | 449 kts | 221° |
| 2026-05-04 02:54 | 13.83061 | 109.72976 | 33925 ft | 448 kts | 221° |
| 2026-05-04 02:54 | 13.63838 | 109.56530 | 33918 ft | 451 kts | 221° |
| 2026-05-04 02:55 | 13.34721 | 109.31689 | 33909 ft | 456 kts | 220° |
| 2026-05-04 02:56 | 13.15159 | 109.15056 | 33909 ft | 456 kts | 220° |
| 2026-05-04 02:56 | 12.95568 | 108.98406 | 33893 ft | 458 kts | 221° |
| 2026-05-04 02:57 | 12.75885 | 108.81754 | 33875 ft | 461 kts | 220° |
| 2026-05-04 02:57 | 12.56147 | 108.65154 | 33909 ft | 460 kts | 220° |
| 2026-05-04 02:58 | 12.36657 | 108.48664 | 33858 ft | 450 kts | 219° |
| 2026-05-04 02:58 | 12.17155 | 108.32224 | 33835 ft | 457 kts | 219° |
| 2026-05-04 02:59 | 11.97584 | 108.15765 | 33823 ft | 455 kts | 219° |
| 2026-05-04 02:59 | 11.87600 | 108.07445 | 31376 ft | 482 kts | 217° |
| 2026-05-04 02:59 | 11.83056 | 108.03843 | 29934 ft | 482 kts | 217° |
| 2026-05-04 02:59 | 11.80378 | 108.01740 | 28748 ft | 487 kts | 217° |
| 2026-05-04 03:00 | 11.75610 | 107.97977 | 26869 ft | 492 kts | 217° |
| 2026-05-04 03:00 | 11.70166 | 107.93638 | 25042 ft | 492 kts | 217° |
| 2026-05-04 03:00 | 11.64803 | 107.89344 | 23538 ft | 488 kts | 217° |
| 2026-05-04 03:00 | 11.59501 | 107.85105 | 22073 ft | 478 kts | 217° |
| 2026-05-04 03:01 | 11.54332 | 107.80984 | 20763 ft | 466 kts | 217° |
| 2026-05-04 03:01 | 11.49273 | 107.76961 | 19532 ft | 455 kts | 217° |
| 2026-05-04 03:01 | 11.44348 | 107.73040 | 18365 ft | 444 kts | 217° |
| 2026-05-04 03:01 | 11.39541 | 107.69212 | 17246 ft | 430 kts | 217° |
| 2026-05-04 03:02 | 11.34901 | 107.65522 | 16281 ft | 416 kts | 217° |
| 2026-05-04 03:02 | 11.30397 | 107.61944 | 15210 ft | 406 kts | 217° |
| 2026-05-04 03:02 | 11.26685 | 107.57825 | 14156 ft | 401 kts | 238° |
| 2026-05-04 03:02 | 11.23854 | 107.52979 | 12993 ft | 396 kts | 238° |
| 2026-05-04 03:03 | 11.21034 | 107.48172 | 11802 ft | 394 kts | 238° |
| 2026-05-04 03:03 | 11.18229 | 107.43409 | 10655 ft | 391 kts | 238° |
| 2026-05-04 03:03 | 11.15441 | 107.38674 | 9709 ft | 384 kts | 239° |
| 2026-05-04 03:03 | 11.12797 | 107.34188 | 9450 ft | 356 kts | 239° |
| 2026-05-04 03:04 | 11.10345 | 107.30015 | 9188 ft | 331 kts | 239° |
| 2026-05-04 03:04 | 11.08064 | 107.26133 | 8925 ft | 309 kts | 239° |
| 2026-05-04 03:04 | 11.05885 | 107.22432 | 8305 ft | 302 kts | 239° |
| 2026-05-04 03:04 | 11.03738 | 107.18783 | 7601 ft | 298 kts | 239° |
| 2026-05-04 03:05 | 11.01615 | 107.15180 | 6925 ft | 294 kts | 239° |
| 2026-05-04 03:05 | 10.99541 | 107.11670 | 6255 ft | 290 kts | 238° |
| 2026-05-04 03:05 | 10.97444 | 107.08126 | 5534 ft | 286 kts | 239° |
| 2026-05-04 03:05 | 10.95524 | 107.04864 | 4888 ft | 282 kts | 239° |
| 2026-05-04 03:06 | 10.94532 | 107.03181 | 4534 ft | 281 kts | 239° |
| 2026-05-04 03:06 | 10.93529 | 107.01479 | 4149 ft | 280 kts | 239° |
| 2026-05-04 03:06 | 10.92531 | 106.99786 | 3794 ft | 278 kts | 239° |
| 2026-05-04 03:06 | 10.91534 | 106.98099 | 3424 ft | 278 kts | 239° |
| 2026-05-04 03:07 | 10.90542 | 106.96420 | 3088 ft | 276 kts | 240° |
| 2026-05-04 03:07 | 10.89555 | 106.94755 | 2755 ft | 273 kts | 239° |
| 2026-05-04 03:07 | 10.88594 | 106.93132 | 2636 ft | 263 kts | 239° |
| 2026-05-04 03:07 | 10.87735 | 106.91533 | 2511 ft | 253 kts | 250° |
| 2026-05-04 03:08 | 10.87334 | 106.89821 | 2506 ft | 250 kts | 267° |
| 2026-05-04 03:08 | 10.87421 | 106.88069 | 2505 ft | 248 kts | 281° |
| 2026-05-04 03:08 | 10.87713 | 106.86336 | 2522 ft | 247 kts | 281° |
| 2026-05-04 03:08 | 10.87993 | 106.84625 | 2522 ft | 244 kts | 281° |
| 2026-05-04 03:09 | 10.88250 | 106.82916 | 2524 ft | 245 kts | 276° |
| 2026-05-04 03:09 | 10.88082 | 106.81196 | 2527 ft | 246 kts | 253° |
| 2026-05-04 03:09 | 10.87498 | 106.79602 | 2542 ft | 234 kts | 249° |
| 2026-05-04 03:09 | 10.86927 | 106.78096 | 2367 ft | 220 kts | 250° |
| 2026-05-04 03:10 | 10.86399 | 106.76697 | 2121 ft | 207 kts | 249° |
| 2026-05-04 03:10 | 10.85890 | 106.75344 | 1847 ft | 203 kts | 250° |
| 2026-05-04 03:10 | 10.85394 | 106.74031 | 1640 ft | 192 kts | 250° |
| 2026-05-04 03:10 | 10.84930 | 106.72801 | 1376 ft | 181 kts | 249° |
| 2026-05-04 03:11 | 10.84492 | 106.71639 | 1135 ft | 170 kts | 249° |
| 2026-05-04 03:11 | 10.84084 | 106.70558 | 933 ft | 163 kts | 248° |
| 2026-05-04 03:11 | 10.83681 | 106.69489 | 701 ft | 161 kts | 249° |
| 2026-05-04 03:11 | 10.83291 | 106.68441 | 492 ft | 158 kts | 247° |
| 2026-05-04 03:12 | 10.82887 | 106.67374 | 328 ft | 161 kts | 246° |
| 2026-05-04 03:12 | 10.82479 | 106.66304 | 102 ft | 161 kts | 248° |
| 2026-05-04 03:12 | 10.82095 | 106.65286 | 36 ft | 142 kts | 249° |
| 2026-05-04 03:12 | 10.81891 | 106.64748 | 36 ft | 100 kts | 249° |
| 2026-05-04 03:13 | 10.81761 | 106.64444 | 37 ft | 29 kts | 232° |
| 2026-05-04 03:13 | 10.81595 | 106.64298 | 35 ft | 15 kts | 205° |
| 2026-05-04 03:13 | 10.81530 | 106.64296 | 36 ft | 14 kts | 161° |
| 2026-05-04 03:13 | 10.81449 | 106.64327 | 37 ft | 11 kts | 159° |
| 2026-05-04 03:14 | 10.81379 | 106.64354 | 37 ft | 10 kts | 159° |
| 2026-05-04 03:14 | 10.81311 | 106.64380 | 37 ft | 11 kts | 159° |
| 2026-05-04 03:14 | 10.81247 | 106.64442 | 37 ft | 13 kts | 87° |
| 2026-05-04 03:14 | 10.81275 | 106.64522 | 39 ft | 11 kts | 69° |
| 2026-05-04 03:15 | 10.81300 | 106.64588 | 40 ft | 9 kts | 69° |
| 2026-05-04 03:15 | 10.81322 | 106.64646 | 40 ft | 9 kts | 69° |
| 2026-05-04 03:15 | 10.81343 | 106.64701 | 41 ft | 8 kts | 69° |
| 2026-05-04 03:15 | 10.81362 | 106.64752 | 39 ft | 8 kts | 70° |
| 2026-05-04 03:16 | 10.81384 | 106.64811 | 42 ft | 9 kts | 69° |
| 2026-05-04 03:16 | 10.81409 | 106.64879 | 41 ft | 11 kts | 69° |
| 2026-05-04 03:16 | 10.81446 | 106.64976 | 39 ft | 20 kts | 69° |
| 2026-05-04 03:16 | 10.81505 | 106.65131 | 36 ft | 24 kts | 69° |
| 2026-05-04 03:17 | 10.81566 | 106.65293 | 34 ft | 25 kts | 69° |
| 2026-05-04 03:17 | 10.81628 | 106.65460 | 34 ft | 25 kts | 69° |
| 2026-05-04 03:17 | 10.81690 | 106.65622 | 36 ft | 24 kts | 69° |
| 2026-05-04 03:17 | 10.81751 | 106.65781 | 35 ft | 24 kts | 68° |
| 2026-05-04 03:18 | 10.81809 | 106.65937 | 34 ft | 23 kts | 69° |
| 2026-05-04 03:18 | 10.81823 | 106.66055 | 36 ft | 14 kts | 137° |
| 2026-05-04 03:18 | 10.81719 | 106.66058 | 37 ft | 17 kts | 185° |
| 2026-05-04 03:18 | 10.81607 | 106.66048 | 37 ft | 16 kts | 185° |
| 2026-05-04 03:19 | 10.81532 | 106.66064 | 37 ft | 10 kts | 122° |
| 2026-05-04 03:19 | 10.81522 | 106.66129 | 37 ft | 4 kts | 95° |
| 2026-05-04 03:19 | 10.81522 | 106.66130 | 37 ft | 0 kts | 95° |
| 2026-05-04 03:19 | 10.81522 | 106.66131 | 37 ft | 0 kts | 95° |